Okayama, Japan

8:40 AM JST on December 20, 2014 (GMT +0900)
Tokushima | Change Station
CLOSE
Current Station
Airport
Location: Tokushima AB,
Elevation: 36 ft
Nearby Weather Stations

Elev 36 ft 34.13 °N, 134.61 °E | Updated 14 minutes ago

Heavy Rain Showers
Heavy Showers Rain Mist
54 °F
Feels Like 54 °F
N
25
Wind Variable Wind from SSE
Gusts 41 mph

Today
High -- | Low -- °F
--% Chance of Precip.
Yesterday
High -- | Low -- °F
Precip. -- in
7:06 AM 4:56 PM
Waning Crescent, 5% visible
Pressure 30.01 in
Visibility -9999.0 miles
Clouds Few 500 ft
Mostly Cloudy 800 ft
Overcast 2000 ft
Few 2000 ft
Dew Point 50 °F
Humidity 88%
Rainfall 0.00 in
Snow Depth Not available.
UV 1 out of 12
Pollen Not available.
Air Quality Not available.
Flu Activity Not available.
SPECI RJOS 192326Z 16022G36KT 3100 R29/0700VP1800D +SHRA BR FEW005 BKN008 OVC020 FEW020TCU 12/10 Q1016 RMK 2ST005 5ST008 8CU020 1TCU020 A3000 R1000 TCU 5KM S MOV N

More Conditions Fewer Conditions

Pressure 30.01 in
Visibility -9999.0 miles
Clouds Few 500 ft
Mostly Cloudy 800 ft
Overcast 2000 ft
Few 2000 ft
Dew Point 50 °F
Humidity 88%
Rainfall 0.00 in
Snow Depth Not available.
UV 1 out of 12
Pollen Not available.
Air Quality Not available.
Flu Activity Not available.
SPECI RJOS 192326Z 16022G36KT 3100 R29/0700VP1800D +SHRA BR FEW005 BKN008 OVC020 FEW020TCU 12/10 Q1016 RMK 2ST005 5ST008 8CU020 1TCU020 A3000 R1000 TCU 5KM S MOV N

More Conditions Fewer Conditions

10-Day Weather Forecast

Almanac

Astronomy

Dec. 20, 2014 Rise Set
Actual Time
Civil Twilight
Nautical Twilight
Astronomical Twilight
Moon
Length of Visible Light
Length of Day
Tomorrow will be .
, % of the Moon is Illuminated

Today's Extremes

Country Highs Country Lows

Community

WunderPhotos

Upload Photos

1,779,078 photos uploaded!

WunderBlogs® & News

Nearby

Air Quality

  Air Quality AQ Index Pollutant
Not available.

Snow Depth

Station Depth Elevation

Earthquake Activity

City Distance Mag. Time & Date
Minimum magnitude displayed is 2.5.

Coastal Water Temperatures

Place Temperature

Nearby Weather Stations